Aviation Digital Data Service (ADDS)

Output produced by METARs form (1728 UTC 03 June 2020)
found at http://www.aviationweather.gov/metar/data/
 
METAR text: VOMM 031700Z 18011G22KT 6000 NSC 31/26 Q1007 NOSIG
Conditions at: VOMM (MADRAS/CHENNAI , IN) observed 1700 UTC 03 June 2020
Temperature: 31.0°C (88°F)
Dewpoint: 26.0°C (79°F) [RH = 75%]
Pressure (altimeter): 29.73 inches Hg (1007.0 mb)
Winds: from the S (180 degrees) at 13 MPH (11 knots; 5.7 m/s)
gusting to 25 MPH (22 knots; 11.3 m/s)
Visibility: 4 miles ( 6 km)
Ceiling: at least 12,000 feet AGL
Clouds: sky clear below 12,000 feet AGL
Weather: no significant weather observed at this time

METAR text: VOMM 031630Z 18011G22KT 6000 NSC 31/26 Q1007 NOSIG
Conditions at: VOMM (MADRAS/CHENNAI , IN) observed 1630 UTC 03 June 2020
Temperature: 31.0°C (88°F)
Dewpoint: 26.0°C (79°F) [RH = 75%]
Pressure (altimeter): 29.73 inches Hg (1007.0 mb)
Winds: from the S (180 degrees) at 13 MPH (11 knots; 5.7 m/s)
gusting to 25 MPH (22 knots; 11.3 m/s)
Visibility: 4 miles ( 6 km)
Ceiling: at least 12,000 feet AGL
Clouds: sky clear below 12,000 feet AGL
Weather: no significant weather observed at this time

METAR text: VOMM 031600Z 18012G22KT 6000 FEW020 31/26 Q1007 NOSIG
Conditions at: VOMM (MADRAS/CHENNAI , IN) observed 1600 UTC 03 June 2020
Temperature: 31.0°C (88°F)
Dewpoint: 26.0°C (79°F) [RH = 75%]
Pressure (altimeter): 29.73 inches Hg (1007.0 mb)
Winds: from the S (180 degrees) at 14 MPH (12 knots; 6.2 m/s)
gusting to 25 MPH (22 knots; 11.3 m/s)
Visibility: 4 miles ( 6 km)
Ceiling: at least 12,000 feet AGL
Clouds: few clouds at 2000 feet AGL
Weather: no significant weather observed at this time

METAR text: VOMM 031530Z 17010G20KT 6000 FEW020 31/26 Q1007 NOSIG
Conditions at: VOMM (MADRAS/CHENNAI , IN) observed 1530 UTC 03 June 2020
Temperature: 31.0°C (88°F)
Dewpoint: 26.0°C (79°F) [RH = 75%]
Pressure (altimeter): 29.73 inches Hg (1007.0 mb)
Winds: from the S (170 degrees) at 12 MPH (10 knots; 5.1 m/s)
gusting to 23 MPH (20 knots; 10.3 m/s)
Visibility: 4 miles ( 6 km)
Ceiling: at least 12,000 feet AGL
Clouds: few clouds at 2000 feet AGL
Weather: no significant weather observed at this time

METAR text: VOMM 031500Z 17010G20KT 6000 FEW020 31/26 Q1006 NOSIG
Conditions at: VOMM (MADRAS/CHENNAI , IN) observed 1500 UTC 03 June 2020
Temperature: 31.0°C (88°F)
Dewpoint: 26.0°C (79°F) [RH = 75%]
Pressure (altimeter): 29.70 inches Hg (1006.0 mb)
Winds: from the S (170 degrees) at 12 MPH (10 knots; 5.1 m/s)
gusting to 23 MPH (20 knots; 10.3 m/s)
Visibility: 4 miles ( 6 km)
Ceiling: at least 12,000 feet AGL
Clouds: few clouds at 2000 feet AGL
Weather: no significant weather observed at this time

METAR text: VOMM 031430Z 18010G20KT 6000 FEW020 31/26 Q1006 NOSIG
Conditions at: VOMM (MADRAS/CHENNAI , IN) observed 1430 UTC 03 June 2020
Temperature: 31.0°C (88°F)
Dewpoint: 26.0°C (79°F) [RH = 75%]
Pressure (altimeter): 29.70 inches Hg (1006.0 mb)
Winds: from the S (180 degrees) at 12 MPH (10 knots; 5.1 m/s)
gusting to 23 MPH (20 knots; 10.3 m/s)
Visibility: 4 miles ( 6 km)
Ceiling: at least 12,000 feet AGL
Clouds: few clouds at 2000 feet AGL
Weather: no significant weather observed at this time

METAR text: VOMM 031400Z 17012G22KT 6000 FEW020 31/26 Q1005 NOSIG
Conditions at: VOMM (MADRAS/CHENNAI , IN) observed 1400 UTC 03 June 2020
Temperature: 31.0°C (88°F)
Dewpoint: 26.0°C (79°F) [RH = 75%]
Pressure (altimeter): 29.68 inches Hg (1005.0 mb)
Winds: from the S (170 degrees) at 14 MPH (12 knots; 6.2 m/s)
gusting to 25 MPH (22 knots; 11.3 m/s)
Visibility: 4 miles ( 6 km)
Ceiling: at least 12,000 feet AGL
Clouds: few clouds at 2000 feet AGL
Weather: no significant weather observed at this time

METAR text: VOMM 031330Z 16012G22KT 6000 SCT020 31/25 Q1005 NOSIG
Conditions at: VOMM (MADRAS/CHENNAI , IN) observed 1330 UTC 03 June 2020
Temperature: 31.0°C (88°F)
Dewpoint: 25.0°C (77°F) [RH = 71%]
Pressure (altimeter): 29.68 inches Hg (1005.0 mb)
Winds: from the SSE (160 degrees) at 14 MPH (12 knots; 6.2 m/s)
gusting to 25 MPH (22 knots; 11.3 m/s)
Visibility: 4 miles ( 6 km)
Ceiling: at least 12,000 feet AGL
Clouds: scattered clouds at 2000 feet AGL
Weather: no significant weather observed at this time

METAR text: VOMM 031300Z 16012KT 6000 FEW020 SCT100 32/25 Q1004 NOSIG
Conditions at: VOMM (MADRAS/CHENNAI , IN) observed 1300 UTC 03 June 2020
Temperature: 32.0°C (90°F)
Dewpoint: 25.0°C (77°F) [RH = 67%]
Pressure (altimeter): 29.65 inches Hg (1004.0 mb)
Winds: from the SSE (160 degrees) at 14 MPH (12 knots; 6.2 m/s)
Visibility: 4 miles ( 6 km)
Ceiling: at least 12,000 feet AGL
Clouds: few clouds at 2000 feet AGL
scattered clouds at 10000 feet AGL
Weather: no significant weather observed at this time

METAR text: VOMM 031230Z 16012KT 6000 FEW020 SCT100 33/24 Q1004 NOSIG
Conditions at: VOMM (MADRAS/CHENNAI , IN) observed 1230 UTC 03 June 2020
Temperature: 33.0°C (91°F)
Dewpoint: 24.0°C (75°F) [RH = 59%]
Pressure (altimeter): 29.65 inches Hg (1004.0 mb)
Winds: from the SSE (160 degrees) at 14 MPH (12 knots; 6.2 m/s)
Visibility: 4 miles ( 6 km)
Ceiling: at least 12,000 feet AGL
Clouds: few clouds at 2000 feet AGL
scattered clouds at 10000 feet AGL
Weather: no significant weather observed at this time

METAR text: VOMM 031200Z 16012KT 7000 FEW020 SCT100 33/24 Q1004 NOSIG
Conditions at: VOMM (MADRAS/CHENNAI , IN) observed 1200 UTC 03 June 2020
Temperature: 33.0°C (91°F)
Dewpoint: 24.0°C (75°F) [RH = 59%]
Pressure (altimeter): 29.65 inches Hg (1004.0 mb)
Winds: from the SSE (160 degrees) at 14 MPH (12 knots; 6.2 m/s)
Visibility: 4 miles ( 7 km)
Ceiling: at least 12,000 feet AGL
Clouds: few clouds at 2000 feet AGL
scattered clouds at 10000 feet AGL
Weather: no significant weather observed at this time

METAR text: VOMM 031130Z 15013KT 8000 FEW020 SCT100 34/24 Q1003 NOSIG
Conditions at: VOMM (MADRAS/CHENNAI , IN) observed 1130 UTC 03 June 2020
Temperature: 34.0°C (93°F)
Dewpoint: 24.0°C (75°F) [RH = 56%]
Pressure (altimeter): 29.62 inches Hg (1003.0 mb)
Winds: from the SSE (150 degrees) at 15 MPH (13 knots; 6.7 m/s)
Visibility: 5 miles ( 8 km)
Ceiling: at least 12,000 feet AGL
Clouds: few clouds at 2000 feet AGL
scattered clouds at 10000 feet AGL
Weather: no significant weather observed at this time

METAR text: VOMM 031100Z 15013KT 8000 FEW020 SCT100 35/24 Q1003 NOSIG
Conditions at: VOMM (MADRAS/CHENNAI , IN) observed 1100 UTC 03 June 2020
Temperature: 35.0°C (95°F)
Dewpoint: 24.0°C (75°F) [RH = 53%]
Pressure (altimeter): 29.62 inches Hg (1003.0 mb)
Winds: from the SSE (150 degrees) at 15 MPH (13 knots; 6.7 m/s)
Visibility: 5 miles ( 8 km)
Ceiling: at least 12,000 feet AGL
Clouds: few clouds at 2000 feet AGL
scattered clouds at 10000 feet AGL
Weather: no significant weather observed at this time

METAR text: VOMM 031030Z 13011KT 8000 FEW020 SCT100 35/24 Q1003 NOSIG
Conditions at: VOMM (MADRAS/CHENNAI , IN) observed 1030 UTC 03 June 2020
Temperature: 35.0°C (95°F)
Dewpoint: 24.0°C (75°F) [RH = 53%]
Pressure (altimeter): 29.62 inches Hg (1003.0 mb)
Winds: from the SE (130 degrees) at 13 MPH (11 knots; 5.7 m/s)
Visibility: 5 miles ( 8 km)
Ceiling: at least 12,000 feet AGL
Clouds: few clouds at 2000 feet AGL
scattered clouds at 10000 feet AGL
Weather: no significant weather observed at this time

METAR text: VOMM 031000Z 14011KT 8000 FEW020 SCT100 36/24 Q1004 NOSIG
Conditions at: VOMM (MADRAS/CHENNAI , IN) observed 1000 UTC 03 June 2020
Temperature: 36.0°C (97°F)
Dewpoint: 24.0°C (75°F) [RH = 50%]
Pressure (altimeter): 29.65 inches Hg (1004.0 mb)
Winds: from the SE (140 degrees) at 13 MPH (11 knots; 5.7 m/s)
Visibility: 5 miles ( 8 km)
Ceiling: at least 12,000 feet AGL
Clouds: few clouds at 2000 feet AGL
scattered clouds at 10000 feet AGL
Weather: no significant weather observed at this time

METAR text: VOMM 030930Z 13011KT 8000 FEW020 SCT100 36/24 Q1004 NOSIG
Conditions at: VOMM (MADRAS/CHENNAI , IN) observed 0930 UTC 03 June 2020
Temperature: 36.0°C (97°F)
Dewpoint: 24.0°C (75°F) [RH = 50%]
Pressure (altimeter): 29.65 inches Hg (1004.0 mb)
Winds: from the SE (130 degrees) at 13 MPH (11 knots; 5.7 m/s)
Visibility: 5 miles ( 8 km)
Ceiling: at least 12,000 feet AGL
Clouds: few clouds at 2000 feet AGL
scattered clouds at 10000 feet AGL
Weather: no significant weather observed at this time

METAR text: VOMM 030900Z 13011KT 8000 FEW020 SCT100 36/23 Q1005 NOSIG
Conditions at: VOMM (MADRAS/CHENNAI , IN) observed 0900 UTC 03 June 2020
Temperature: 36.0°C (97°F)
Dewpoint: 23.0°C (73°F) [RH = 47%]
Pressure (altimeter): 29.68 inches Hg (1005.0 mb)
Winds: from the SE (130 degrees) at 13 MPH (11 knots; 5.7 m/s)
Visibility: 5 miles ( 8 km)
Ceiling: at least 12,000 feet AGL
Clouds: few clouds at 2000 feet AGL
scattered clouds at 10000 feet AGL
Weather: no significant weather observed at this time

METAR text: VOMM 030830Z 12011KT 8000 FEW020 SCT100 36/23 Q1005 NOSIG
Conditions at: VOMM (MADRAS/CHENNAI , IN) observed 0830 UTC 03 June 2020
Temperature: 36.0°C (97°F)
Dewpoint: 23.0°C (73°F) [RH = 47%]
Pressure (altimeter): 29.68 inches Hg (1005.0 mb)
Winds: from the ESE (120 degrees) at 13 MPH (11 knots; 5.7 m/s)
Visibility: 5 miles ( 8 km)
Ceiling: at least 12,000 feet AGL
Clouds: few clouds at 2000 feet AGL
scattered clouds at 10000 feet AGL
Weather: no significant weather observed at this time

METAR text: VOMM 030800Z 12011KT 8000 FEW020 SCT100 38/21 Q1006 NOSIG
Conditions at: VOMM (MADRAS/CHENNAI , IN) observed 0800 UTC 03 June 2020
Temperature: 38.0°C (100°F)
Dewpoint: 21.0°C (70°F) [RH = 38%]
Pressure (altimeter): 29.70 inches Hg (1006.0 mb)
Winds: from the ESE (120 degrees) at 13 MPH (11 knots; 5.7 m/s)
Visibility: 5 miles ( 8 km)
Ceiling: at least 12,000 feet AGL
Clouds: few clouds at 2000 feet AGL
scattered clouds at 10000 feet AGL
Weather: no significant weather observed at this time

METAR text: VOMM 030730Z 23011KT 8000 FEW020 SCT100 38/21 Q1006 NOSIG
Conditions at: VOMM (MADRAS/CHENNAI , IN) observed 0730 UTC 03 June 2020
Temperature: 38.0°C (100°F)
Dewpoint: 21.0°C (70°F) [RH = 38%]
Pressure (altimeter): 29.70 inches Hg (1006.0 mb)
Winds: from the SW (230 degrees) at 13 MPH (11 knots; 5.7 m/s)
Visibility: 5 miles ( 8 km)
Ceiling: at least 12,000 feet AGL
Clouds: few clouds at 2000 feet AGL
scattered clouds at 10000 feet AGL
Weather: no significant weather observed at this time

METAR text: VOMM 030700Z 21011KT 8000 NSC 37/20 Q1007 NOSIG
Conditions at: VOMM (MADRAS/CHENNAI , IN) observed 0700 UTC 03 June 2020
Temperature: 37.0°C (99°F)
Dewpoint: 20.0°C (68°F) [RH = 37%]
Pressure (altimeter): 29.73 inches Hg (1007.0 mb)
Winds: from the SSW (210 degrees) at 13 MPH (11 knots; 5.7 m/s)
Visibility: 5 miles ( 8 km)
Ceiling: at least 12,000 feet AGL
Clouds: sky clear below 12,000 feet AGL
Weather: no significant weather observed at this time

METAR text: VOMM 030630Z 23009KT 8000 NSC 37/20 Q1007 NOSIG
Conditions at: VOMM (MADRAS/CHENNAI , IN) observed 0630 UTC 03 June 2020
Temperature: 37.0°C (99°F)
Dewpoint: 20.0°C (68°F) [RH = 37%]
Pressure (altimeter): 29.73 inches Hg (1007.0 mb)
Winds: from the SW (230 degrees) at 10 MPH (9 knots; 4.6 m/s)
Visibility: 5 miles ( 8 km)
Ceiling: at least 12,000 feet AGL
Clouds: sky clear below 12,000 feet AGL
Weather: no significant weather observed at this time

METAR text: VOMM 030600Z 21009KT 8000 NSC 36/20 Q1008 NOSIG
Conditions at: VOMM (MADRAS/CHENNAI , IN) observed 0600 UTC 03 June 2020
Temperature: 36.0°C (97°F)
Dewpoint: 20.0°C (68°F) [RH = 39%]
Pressure (altimeter): 29.76 inches Hg (1008.0 mb)
Winds: from the SSW (210 degrees) at 10 MPH (9 knots; 4.6 m/s)
Visibility: 5 miles ( 8 km)
Ceiling: at least 12,000 feet AGL
Clouds: sky clear below 12,000 feet AGL
Weather: no significant weather observed at this time

METAR text: VOMM 030530Z 22012KT 8000 NSC 36/21 Q1008 NOSIG
Conditions at: VOMM (MADRAS/CHENNAI , IN) observed 0530 UTC 03 June 2020
Temperature: 36.0°C (97°F)
Dewpoint: 21.0°C (70°F) [RH = 42%]
Pressure (altimeter): 29.76 inches Hg (1008.0 mb)
Winds: from the SW (220 degrees) at 14 MPH (12 knots; 6.2 m/s)
Visibility: 5 miles ( 8 km)
Ceiling: at least 12,000 feet AGL
Clouds: sky clear below 12,000 feet AGL
Weather: no significant weather observed at this time

METAR text: VOMM 030500Z 22012KT 8000 FEW020 SCT100 35/20 Q1008 NOSIG
Conditions at: VOMM (MADRAS/CHENNAI , IN) observed 0500 UTC 03 June 2020
Temperature: 35.0°C (95°F)
Dewpoint: 20.0°C (68°F) [RH = 42%]
Pressure (altimeter): 29.76 inches Hg (1008.0 mb)
Winds: from the SW (220 degrees) at 14 MPH (12 knots; 6.2 m/s)
Visibility: 5 miles ( 8 km)
Ceiling: at least 12,000 feet AGL
Clouds: few clouds at 2000 feet AGL
scattered clouds at 10000 feet AGL
Weather: no significant weather observed at this time

METAR text: VOMM 030430Z 20011KT 8000 FEW020 SCT100 34/21 Q1008 NOSIG
Conditions at: VOMM (MADRAS/CHENNAI , IN) observed 0430 UTC 03 June 2020
Temperature: 34.0°C (93°F)
Dewpoint: 21.0°C (70°F) [RH = 47%]
Pressure (altimeter): 29.76 inches Hg (1008.0 mb)
Winds: from the SSW (200 degrees) at 13 MPH (11 knots; 5.7 m/s)
Visibility: 5 miles ( 8 km)
Ceiling: at least 12,000 feet AGL
Clouds: few clouds at 2000 feet AGL
scattered clouds at 10000 feet AGL
Weather: no significant weather observed at this time

METAR text: VOMM 030400Z 22009KT 8000 FEW020 SCT100 34/20 Q1009 NOSIG
Conditions at: VOMM (MADRAS/CHENNAI , IN) observed 0400 UTC 03 June 2020
Temperature: 34.0°C (93°F)
Dewpoint: 20.0°C (68°F) [RH = 44%]
Pressure (altimeter): 29.79 inches Hg (1009.0 mb)
Winds: from the SW (220 degrees) at 10 MPH (9 knots; 4.6 m/s)
Visibility: 5 miles ( 8 km)
Ceiling: at least 12,000 feet AGL
Clouds: few clouds at 2000 feet AGL
scattered clouds at 10000 feet AGL
Weather: no significant weather observed at this time

METAR text: VOMM 030330Z 21009KT 8000 FEW020 SCT100 34/21 Q1009 NOSIG
Conditions at: VOMM (MADRAS/CHENNAI , IN) observed 0330 UTC 03 June 2020
Temperature: 34.0°C (93°F)
Dewpoint: 21.0°C (70°F) [RH = 47%]
Pressure (altimeter): 29.79 inches Hg (1009.0 mb)
Winds: from the SSW (210 degrees) at 10 MPH (9 knots; 4.6 m/s)
Visibility: 5 miles ( 8 km)
Ceiling: at least 12,000 feet AGL
Clouds: few clouds at 2000 feet AGL
scattered clouds at 10000 feet AGL
Weather: no significant weather observed at this time

METAR text: VOMM 030300Z 23009KT 7000 SCT020 BKN100 33/20 Q1008 NOSIG
Conditions at: VOMM (MADRAS/CHENNAI , IN) observed 0300 UTC 03 June 2020
Temperature: 33.0°C (91°F)
Dewpoint: 20.0°C (68°F) [RH = 46%]
Pressure (altimeter): 29.76 inches Hg (1008.0 mb)
Winds: from the SW (230 degrees) at 10 MPH (9 knots; 4.6 m/s)
Visibility: 4 miles ( 7 km)
Ceiling: 10000 feet AGL
Clouds: scattered clouds at 2000 feet AGL
broken clouds at 10000 feet AGL
Weather: no significant weather observed at this time

METAR text: VOMM 030230Z 22009KT 6000 SCT020 BKN100 32/21 Q1008 NOSIG
Conditions at: VOMM (MADRAS/CHENNAI , IN) observed 0230 UTC 03 June 2020
Temperature: 32.0°C (90°F)
Dewpoint: 21.0°C (70°F) [RH = 52%]
Pressure (altimeter): 29.76 inches Hg (1008.0 mb)
Winds: from the SW (220 degrees) at 10 MPH (9 knots; 4.6 m/s)
Visibility: 4 miles ( 6 km)
Ceiling: 10000 feet AGL
Clouds: scattered clouds at 2000 feet AGL
broken clouds at 10000 feet AGL
Weather: no significant weather observed at this time

METAR text: VOMM 030200Z 23009KT 6000 SCT020 BKN100 32/21 Q1008 NOSIG
Conditions at: VOMM (MADRAS/CHENNAI , IN) observed 0200 UTC 03 June 2020
Temperature: 32.0°C (90°F)
Dewpoint: 21.0°C (70°F) [RH = 52%]
Pressure (altimeter): 29.76 inches Hg (1008.0 mb)
Winds: from the SW (230 degrees) at 10 MPH (9 knots; 4.6 m/s)
Visibility: 4 miles ( 6 km)
Ceiling: 10000 feet AGL
Clouds: scattered clouds at 2000 feet AGL
broken clouds at 10000 feet AGL
Weather: no significant weather observed at this time

METAR text: VOMM 030130Z 23009KT 6000 FEW020 SCT100 31/21 Q1008 NOSIG
Conditions at: VOMM (MADRAS/CHENNAI , IN) observed 0130 UTC 03 June 2020
Temperature: 31.0°C (88°F)
Dewpoint: 21.0°C (70°F) [RH = 55%]
Pressure (altimeter): 29.76 inches Hg (1008.0 mb)
Winds: from the SW (230 degrees) at 10 MPH (9 knots; 4.6 m/s)
Visibility: 4 miles ( 6 km)
Ceiling: at least 12,000 feet AGL
Clouds: few clouds at 2000 feet AGL
scattered clouds at 10000 feet AGL
Weather: no significant weather observed at this time

METAR text: VOMM 030100Z 23007KT 6000 FEW020 SCT100 31/21 Q1007 NOSIG
Conditions at: VOMM (MADRAS/CHENNAI , IN) observed 0100 UTC 03 June 2020
Temperature: 31.0°C (88°F)
Dewpoint: 21.0°C (70°F) [RH = 55%]
Pressure (altimeter): 29.73 inches Hg (1007.0 mb)
Winds: from the SW (230 degrees) at 8 MPH (7 knots; 3.6 m/s)
Visibility: 4 miles ( 6 km)
Ceiling: at least 12,000 feet AGL
Clouds: few clouds at 2000 feet AGL
scattered clouds at 10000 feet AGL
Weather: no significant weather observed at this time

METAR text: VOMM 030030Z 22006KT 6000 FEW020 SCT100 30/21 Q1007 NOSIG
Conditions at: VOMM (MADRAS/CHENNAI , IN) observed 0030 UTC 03 June 2020
Temperature: 30.0°C (86°F)
Dewpoint: 21.0°C (70°F) [RH = 59%]
Pressure (altimeter): 29.73 inches Hg (1007.0 mb)
Winds: from the SW (220 degrees) at 7 MPH (6 knots; 3.1 m/s)
Visibility: 4 miles ( 6 km)
Ceiling: at least 12,000 feet AGL
Clouds: few clouds at 2000 feet AGL
scattered clouds at 10000 feet AGL
Weather: no significant weather observed at this time

METAR text: VOMM 030000Z 22006KT 6000 FEW020 SCT100 30/21 Q1007 NOSIG
Conditions at: VOMM (MADRAS/CHENNAI , IN) observed 0000 UTC 03 June 2020
Temperature: 30.0°C (86°F)
Dewpoint: 21.0°C (70°F) [RH = 59%]
Pressure (altimeter): 29.73 inches Hg (1007.0 mb)
Winds: from the SW (220 degrees) at 7 MPH (6 knots; 3.1 m/s)
Visibility: 4 miles ( 6 km)
Ceiling: at least 12,000 feet AGL
Clouds: few clouds at 2000 feet AGL
scattered clouds at 10000 feet AGL
Weather: no significant weather observed at this time

METAR text: VOMM 022330Z 22007KT 6000 FEW020 30/22 Q1006 NOSIG
Conditions at: VOMM (MADRAS/CHENNAI , IN) observed 2330 UTC 02 June 2020
Temperature: 30.0°C (86°F)
Dewpoint: 22.0°C (72°F) [RH = 62%]
Pressure (altimeter): 29.70 inches Hg (1006.0 mb)
Winds: from the SW (220 degrees) at 8 MPH (7 knots; 3.6 m/s)
Visibility: 4 miles ( 6 km)
Ceiling: at least 12,000 feet AGL
Clouds: few clouds at 2000 feet AGL
Weather: no significant weather observed at this time

METAR text: VOMM 022300Z 22009KT 6000 FEW020 30/22 Q1006 NOSIG
Conditions at: VOMM (MADRAS/CHENNAI , IN) observed 2300 UTC 02 June 2020
Temperature: 30.0°C (86°F)
Dewpoint: 22.0°C (72°F) [RH = 62%]
Pressure (altimeter): 29.70 inches Hg (1006.0 mb)
Winds: from the SW (220 degrees) at 10 MPH (9 knots; 4.6 m/s)
Visibility: 4 miles ( 6 km)
Ceiling: at least 12,000 feet AGL
Clouds: few clouds at 2000 feet AGL
Weather: no significant weather observed at this time

METAR text: VOMM 022230Z 22009KT 6000 FEW020 30/22 Q1006 NOSIG
Conditions at: VOMM (MADRAS/CHENNAI , IN) observed 2230 UTC 02 June 2020
Temperature: 30.0°C (86°F)
Dewpoint: 22.0°C (72°F) [RH = 62%]
Pressure (altimeter): 29.70 inches Hg (1006.0 mb)
Winds: from the SW (220 degrees) at 10 MPH (9 knots; 4.6 m/s)
Visibility: 4 miles ( 6 km)
Ceiling: at least 12,000 feet AGL
Clouds: few clouds at 2000 feet AGL
Weather: no significant weather observed at this time

METAR text: VOMM 022200Z 20009KT 6000 FEW020 30/24 Q1006 NOSIG
Conditions at: VOMM (MADRAS/CHENNAI , IN) observed 2200 UTC 02 June 2020
Temperature: 30.0°C (86°F)
Dewpoint: 24.0°C (75°F) [RH = 70%]
Pressure (altimeter): 29.70 inches Hg (1006.0 mb)
Winds: from the SSW (200 degrees) at 10 MPH (9 knots; 4.6 m/s)
Visibility: 4 miles ( 6 km)
Ceiling: at least 12,000 feet AGL
Clouds: few clouds at 2000 feet AGL
Weather: no significant weather observed at this time

METAR text: VOMM 022130Z 20008KT 6000 FEW020 30/24 Q1006 NOSIG
Conditions at: VOMM (MADRAS/CHENNAI , IN) observed 2130 UTC 02 June 2020
Temperature: 30.0°C (86°F)
Dewpoint: 24.0°C (75°F) [RH = 70%]
Pressure (altimeter): 29.70 inches Hg (1006.0 mb)
Winds: from the SSW (200 degrees) at 9 MPH (8 knots; 4.1 m/s)
Visibility: 4 miles ( 6 km)
Ceiling: at least 12,000 feet AGL
Clouds: few clouds at 2000 feet AGL
Weather: no significant weather observed at this time

METAR text: VOMM 022100Z 20008KT 6000 FEW020 30/25 Q1006 NOSIG
Conditions at: VOMM (MADRAS/CHENNAI , IN) observed 2100 UTC 02 June 2020
Temperature: 30.0°C (86°F)
Dewpoint: 25.0°C (77°F) [RH = 75%]
Pressure (altimeter): 29.70 inches Hg (1006.0 mb)
Winds: from the SSW (200 degrees) at 9 MPH (8 knots; 4.1 m/s)
Visibility: 4 miles ( 6 km)
Ceiling: at least 12,000 feet AGL
Clouds: few clouds at 2000 feet AGL
Weather: no significant weather observed at this time

METAR text: VOMM 022030Z 19007KT 6000 FEW020 30/25 Q1006 NOSIG
Conditions at: VOMM (MADRAS/CHENNAI , IN) observed 2030 UTC 02 June 2020
Temperature: 30.0°C (86°F)
Dewpoint: 25.0°C (77°F) [RH = 75%]
Pressure (altimeter): 29.70 inches Hg (1006.0 mb)
Winds: from the S (190 degrees) at 8 MPH (7 knots; 3.6 m/s)
Visibility: 4 miles ( 6 km)
Ceiling: at least 12,000 feet AGL
Clouds: few clouds at 2000 feet AGL
Weather: no significant weather observed at this time

METAR text: VOMM 022000Z 19007KT 6000 FEW020 30/25 Q1007 NOSIG
Conditions at: VOMM (MADRAS/CHENNAI , IN) observed 2000 UTC 02 June 2020
Temperature: 30.0°C (86°F)
Dewpoint: 25.0°C (77°F) [RH = 75%]
Pressure (altimeter): 29.73 inches Hg (1007.0 mb)
Winds: from the S (190 degrees) at 8 MPH (7 knots; 3.6 m/s)
Visibility: 4 miles ( 6 km)
Ceiling: at least 12,000 feet AGL
Clouds: few clouds at 2000 feet AGL
Weather: no significant weather observed at this time

METAR text: VOMM 021930Z 18007KT 6000 FEW020 SCT100 31/26 Q1007 NOSIG
Conditions at: VOMM (MADRAS/CHENNAI , IN) observed 1930 UTC 02 June 2020
Temperature: 31.0°C (88°F)
Dewpoint: 26.0°C (79°F) [RH = 75%]
Pressure (altimeter): 29.73 inches Hg (1007.0 mb)
Winds: from the S (180 degrees) at 8 MPH (7 knots; 3.6 m/s)
Visibility: 4 miles ( 6 km)
Ceiling: at least 12,000 feet AGL
Clouds: few clouds at 2000 feet AGL
scattered clouds at 10000 feet AGL
Weather: no significant weather observed at this time

METAR text: VOMM 021900Z 18008KT 6000 FEW020 SCT100 31/26 Q1007 NOSIG
Conditions at: VOMM (MADRAS/CHENNAI , IN) observed 1900 UTC 02 June 2020
Temperature: 31.0°C (88°F)
Dewpoint: 26.0°C (79°F) [RH = 75%]
Pressure (altimeter): 29.73 inches Hg (1007.0 mb)
Winds: from the S (180 degrees) at 9 MPH (8 knots; 4.1 m/s)
Visibility: 4 miles ( 6 km)
Ceiling: at least 12,000 feet AGL
Clouds: few clouds at 2000 feet AGL
scattered clouds at 10000 feet AGL
Weather: no significant weather observed at this time

METAR text: VOMM 021830Z 17008KT 6000 FEW020 31/26 Q1007 NOSIG
Conditions at: VOMM (MADRAS/CHENNAI , IN) observed 1830 UTC 02 June 2020
Temperature: 31.0°C (88°F)
Dewpoint: 26.0°C (79°F) [RH = 75%]
Pressure (altimeter): 29.73 inches Hg (1007.0 mb)
Winds: from the S (170 degrees) at 9 MPH (8 knots; 4.1 m/s)
Visibility: 4 miles ( 6 km)
Ceiling: at least 12,000 feet AGL
Clouds: few clouds at 2000 feet AGL
Weather: no significant weather observed at this time

METAR text: VOMM 021800Z 17008KT 6000 FEW020 31/26 Q1007 NOSIG
Conditions at: VOMM (MADRAS/CHENNAI , IN) observed 1800 UTC 02 June 2020
Temperature: 31.0°C (88°F)
Dewpoint: 26.0°C (79°F) [RH = 75%]
Pressure (altimeter): 29.73 inches Hg (1007.0 mb)
Winds: from the S (170 degrees) at 9 MPH (8 knots; 4.1 m/s)
Visibility: 4 miles ( 6 km)
Ceiling: at least 12,000 feet AGL
Clouds: few clouds at 2000 feet AGL
Weather: no significant weather observed at this time

METAR text: VOMM 021730Z 16008KT 6000 FEW020 31/26 Q1008 NOSIG
Conditions at: VOMM (MADRAS/CHENNAI , IN) observed 1730 UTC 02 June 2020
Temperature: 31.0°C (88°F)
Dewpoint: 26.0°C (79°F) [RH = 75%]
Pressure (altimeter): 29.76 inches Hg (1008.0 mb)
Winds: from the SSE (160 degrees) at 9 MPH (8 knots; 4.1 m/s)
Visibility: 4 miles ( 6 km)
Ceiling: at least 12,000 feet AGL
Clouds: few clouds at 2000 feet AGL
Weather: no significant weather observed at this time

METAR text: VOMM 021700Z 16008KT 6000 FEW020 31/26 Q1008 NOSIG
Conditions at: VOMM (MADRAS/CHENNAI , IN) observed 1700 UTC 02 June 2020
Temperature: 31.0°C (88°F)
Dewpoint: 26.0°C (79°F) [RH = 75%]
Pressure (altimeter): 29.76 inches Hg (1008.0 mb)
Winds: from the SSE (160 degrees) at 9 MPH (8 knots; 4.1 m/s)
Visibility: 4 miles ( 6 km)
Ceiling: at least 12,000 feet AGL
Clouds: few clouds at 2000 feet AGL
Weather: no significant weather observed at this time

METAR text: VOMM 021630Z 18008KT 6000 FEW020 31/26 Q1008 NOSIG
Conditions at: VOMM (MADRAS/CHENNAI , IN) observed 1630 UTC 02 June 2020
Temperature: 31.0°C (88°F)
Dewpoint: 26.0°C (79°F) [RH = 75%]
Pressure (altimeter): 29.76 inches Hg (1008.0 mb)
Winds: from the S (180 degrees) at 9 MPH (8 knots; 4.1 m/s)
Visibility: 4 miles ( 6 km)
Ceiling: at least 12,000 feet AGL
Clouds: few clouds at 2000 feet AGL
Weather: no significant weather observed at this time

METAR text: VOMM 021600Z 17008KT 6000 FEW020 31/27 Q1007 NOSIG
Conditions at: VOMM (MADRAS/CHENNAI , IN) observed 1600 UTC 02 June 2020
Temperature: 31.0°C (88°F)
Dewpoint: 27.0°C (81°F) [RH = 79%]
Pressure (altimeter): 29.73 inches Hg (1007.0 mb)
Winds: from the S (170 degrees) at 9 MPH (8 knots; 4.1 m/s)
Visibility: 4 miles ( 6 km)
Ceiling: at least 12,000 feet AGL
Clouds: few clouds at 2000 feet AGL
Weather: no significant weather observed at this time

METAR text: VOMM 021530Z 17009KT 6000 FEW020 SCT100 31/27 Q1007 NOSIG
Conditions at: VOMM (MADRAS/CHENNAI , IN) observed 1530 UTC 02 June 2020
Temperature: 31.0°C (88°F)
Dewpoint: 27.0°C (81°F) [RH = 79%]
Pressure (altimeter): 29.73 inches Hg (1007.0 mb)
Winds: from the S (170 degrees) at 10 MPH (9 knots; 4.6 m/s)
Visibility: 4 miles ( 6 km)
Ceiling: at least 12,000 feet AGL
Clouds: few clouds at 2000 feet AGL
scattered clouds at 10000 feet AGL
Weather: no significant weather observed at this time

METAR text: VOMM 021500Z 17012KT 6000 FEW020 SCT100 31/27 Q1007 NOSIG
Conditions at: VOMM (MADRAS/CHENNAI , IN) observed 1500 UTC 02 June 2020
Temperature: 31.0°C (88°F)
Dewpoint: 27.0°C (81°F) [RH = 79%]
Pressure (altimeter): 29.73 inches Hg (1007.0 mb)
Winds: from the S (170 degrees) at 14 MPH (12 knots; 6.2 m/s)
Visibility: 4 miles ( 6 km)
Ceiling: at least 12,000 feet AGL
Clouds: few clouds at 2000 feet AGL
scattered clouds at 10000 feet AGL
Weather: no significant weather observed at this time

METAR text: VOMM 021430Z 17012KT 6000 FEW020 SCT100 31/26 Q1006 NOSIG
Conditions at: VOMM (MADRAS/CHENNAI , IN) observed 1430 UTC 02 June 2020
Temperature: 31.0°C (88°F)
Dewpoint: 26.0°C (79°F) [RH = 75%]
Pressure (altimeter): 29.70 inches Hg (1006.0 mb)
Winds: from the S (170 degrees) at 14 MPH (12 knots; 6.2 m/s)
Visibility: 4 miles ( 6 km)
Ceiling: at least 12,000 feet AGL
Clouds: few clouds at 2000 feet AGL
scattered clouds at 10000 feet AGL
Weather: no significant weather observed at this time

METAR text: VOMM 021400Z 17010KT 6000 FEW020 SCT100 32/26 Q1006 NOSIG
Conditions at: VOMM (MADRAS/CHENNAI , IN) observed 1400 UTC 02 June 2020
Temperature: 32.0°C (90°F)
Dewpoint: 26.0°C (79°F) [RH = 71%]
Pressure (altimeter): 29.70 inches Hg (1006.0 mb)
Winds: from the S (170 degrees) at 12 MPH (10 knots; 5.1 m/s)
Visibility: 4 miles ( 6 km)
Ceiling: at least 12,000 feet AGL
Clouds: few clouds at 2000 feet AGL
scattered clouds at 10000 feet AGL
Weather: no significant weather observed at this time

METAR text: VOMM 021330Z 17009KT 6000 FEW020 SCT100 32/25 Q1006 NOSIG
Conditions at: VOMM (MADRAS/CHENNAI , IN) observed 1330 UTC 02 June 2020
Temperature: 32.0°C (90°F)
Dewpoint: 25.0°C (77°F) [RH = 67%]
Pressure (altimeter): 29.70 inches Hg (1006.0 mb)
Winds: from the S (170 degrees) at 10 MPH (9 knots; 4.6 m/s)
Visibility: 4 miles ( 6 km)
Ceiling: at least 12,000 feet AGL
Clouds: few clouds at 2000 feet AGL
scattered clouds at 10000 feet AGL
Weather: no significant weather observed at this time

METAR text: VOMM 021300Z 18010KT 6000 SCT020 BKN100 33/25 Q1005 NOSIG
Conditions at: VOMM (MADRAS/CHENNAI , IN) observed 1300 UTC 02 June 2020
Temperature: 33.0°C (91°F)
Dewpoint: 25.0°C (77°F) [RH = 63%]
Pressure (altimeter): 29.68 inches Hg (1005.0 mb)
Winds: from the S (180 degrees) at 12 MPH (10 knots; 5.1 m/s)
Visibility: 4 miles ( 6 km)
Ceiling: 10000 feet AGL
Clouds: scattered clouds at 2000 feet AGL
broken clouds at 10000 feet AGL
Weather: no significant weather observed at this time

METAR text: VOMM 021230Z 17012G22KT 6000 FEW020 SCT025 BKN100 33/25 Q1005 NOSIG
Conditions at: VOMM (MADRAS/CHENNAI , IN) observed 1230 UTC 02 June 2020
Temperature: 33.0°C (91°F)
Dewpoint: 25.0°C (77°F) [RH = 63%]
Pressure (altimeter): 29.68 inches Hg (1005.0 mb)
Winds: from the S (170 degrees) at 14 MPH (12 knots; 6.2 m/s)
gusting to 25 MPH (22 knots; 11.3 m/s)
Visibility: 4 miles ( 6 km)
Ceiling: 10000 feet AGL
Clouds: few clouds at 2000 feet AGL
scattered clouds at 2500 feet AGL
broken clouds at 10000 feet AGL
Weather: no significant weather observed at this time

METAR text: VOMM 021200Z 17012G22KT 7000 FEW020 FEW025TCU BKN100 33/26 Q1005 NOSIG
Conditions at: VOMM (MADRAS/CHENNAI , IN) observed 1200 UTC 02 June 2020
Temperature: 33.0°C (91°F)
Dewpoint: 26.0°C (79°F) [RH = 67%]
Pressure (altimeter): 29.68 inches Hg (1005.0 mb)
Winds: from the S (170 degrees) at 14 MPH (12 knots; 6.2 m/s)
gusting to 25 MPH (22 knots; 11.3 m/s)
Visibility: 4 miles ( 7 km)
Ceiling: 10000 feet AGL
Clouds: few clouds at 2000 feet AGL
few clouds at 2500 feet AGL
broken clouds at 10000 feet AGL
Weather: no significant weather observed at this time

METAR text: VOMM 021130Z 15012G22KT 8000 FEW020 FEW025TCU SCT100 35/25 Q1004 NOSIG
Conditions at: VOMM (MADRAS/CHENNAI , IN) observed 1130 UTC 02 June 2020
Temperature: 35.0°C (95°F)
Dewpoint: 25.0°C (77°F) [RH = 56%]
Pressure (altimeter): 29.65 inches Hg (1004.0 mb)
Winds: from the SSE (150 degrees) at 14 MPH (12 knots; 6.2 m/s)
gusting to 25 MPH (22 knots; 11.3 m/s)
Visibility: 5 miles ( 8 km)
Ceiling: at least 12,000 feet AGL
Clouds: few clouds at 2000 feet AGL
few clouds at 2500 feet AGL
scattered clouds at 10000 feet AGL
Weather: no significant weather observed at this time

METAR text: VOMM 021100Z 16012G22KT 8000 FEW020 SCT025 BKN100 34/25 Q1005 NOSIG
Conditions at: VOMM (MADRAS/CHENNAI , IN) observed 1100 UTC 02 June 2020
Temperature: 34.0°C (93°F)
Dewpoint: 25.0°C (77°F) [RH = 60%]
Pressure (altimeter): 29.68 inches Hg (1005.0 mb)
Winds: from the SSE (160 degrees) at 14 MPH (12 knots; 6.2 m/s)
gusting to 25 MPH (22 knots; 11.3 m/s)
Visibility: 5 miles ( 8 km)
Ceiling: 10000 feet AGL
Clouds: few clouds at 2000 feet AGL
scattered clouds at 2500 feet AGL
broken clouds at 10000 feet AGL
Weather: no significant weather observed at this time

METAR text: VOMM 021030Z 16011KT 8000 FEW020 SCT025 BKN100 35/25 Q1005 NOSIG
Conditions at: VOMM (MADRAS/CHENNAI , IN) observed 1030 UTC 02 June 2020
Temperature: 35.0°C (95°F)
Dewpoint: 25.0°C (77°F) [RH = 56%]
Pressure (altimeter): 29.68 inches Hg (1005.0 mb)
Winds: from the SSE (160 degrees) at 13 MPH (11 knots; 5.7 m/s)
Visibility: 5 miles ( 8 km)
Ceiling: 10000 feet AGL
Clouds: few clouds at 2000 feet AGL
scattered clouds at 2500 feet AGL
broken clouds at 10000 feet AGL
Weather: no significant weather observed at this time

METAR text: VOMM 021000Z 17011KT 8000 FEW020 SCT025 BKN100 35/25 Q1005 NOSIG
Conditions at: VOMM (MADRAS/CHENNAI , IN) observed 1000 UTC 02 June 2020
Temperature: 35.0°C (95°F)
Dewpoint: 25.0°C (77°F) [RH = 56%]
Pressure (altimeter): 29.68 inches Hg (1005.0 mb)
Winds: from the S (170 degrees) at 13 MPH (11 knots; 5.7 m/s)
Visibility: 5 miles ( 8 km)
Ceiling: 10000 feet AGL
Clouds: few clouds at 2000 feet AGL
scattered clouds at 2500 feet AGL
broken clouds at 10000 feet AGL
Weather: no significant weather observed at this time

METAR text: VOMM 020930Z 15013KT 8000 FEW020 SCT025 BKN100 35/25 Q1005 NOSIG
Conditions at: VOMM (MADRAS/CHENNAI , IN) observed 0930 UTC 02 June 2020
Temperature: 35.0°C (95°F)
Dewpoint: 25.0°C (77°F) [RH = 56%]
Pressure (altimeter): 29.68 inches Hg (1005.0 mb)
Winds: from the SSE (150 degrees) at 15 MPH (13 knots; 6.7 m/s)
Visibility: 5 miles ( 8 km)
Ceiling: 10000 feet AGL
Clouds: few clouds at 2000 feet AGL
scattered clouds at 2500 feet AGL
broken clouds at 10000 feet AGL
Weather: no significant weather observed at this time

METAR text: VOMM 020900Z 16015KT 8000 FEW020 SCT025 BKN100 35/24 Q1006 NOSIG
Conditions at: VOMM (MADRAS/CHENNAI , IN) observed 0900 UTC 02 June 2020
Temperature: 35.0°C (95°F)
Dewpoint: 24.0°C (75°F) [RH = 53%]
Pressure (altimeter): 29.70 inches Hg (1006.0 mb)
Winds: from the SSE (160 degrees) at 17 MPH (15 knots; 7.7 m/s)
Visibility: 5 miles ( 8 km)
Ceiling: 10000 feet AGL
Clouds: few clouds at 2000 feet AGL
scattered clouds at 2500 feet AGL
broken clouds at 10000 feet AGL
Weather: no significant weather observed at this time

METAR text: VOMM 020830Z 15012KT 8000 FEW020 SCT025 BKN100 36/25 Q1006 NOSIG
Conditions at: VOMM (MADRAS/CHENNAI , IN) observed 0830 UTC 02 June 2020
Temperature: 36.0°C (97°F)
Dewpoint: 25.0°C (77°F) [RH = 53%]
Pressure (altimeter): 29.70 inches Hg (1006.0 mb)
Winds: from the SSE (150 degrees) at 14 MPH (12 knots; 6.2 m/s)
Visibility: 5 miles ( 8 km)
Ceiling: 10000 feet AGL
Clouds: few clouds at 2000 feet AGL
scattered clouds at 2500 feet AGL
broken clouds at 10000 feet AGL
Weather: no significant weather observed at this time

METAR text: VOMM 020800Z 16008KT 8000 FEW020 SCT025 BKN100 36/26 Q1006 NOSIG
Conditions at: VOMM (MADRAS/CHENNAI , IN) observed 0800 UTC 02 June 2020
Temperature: 36.0°C (97°F)
Dewpoint: 26.0°C (79°F) [RH = 57%]
Pressure (altimeter): 29.70 inches Hg (1006.0 mb)
Winds: from the SSE (160 degrees) at 9 MPH (8 knots; 4.1 m/s)
Visibility: 5 miles ( 8 km)
Ceiling: 10000 feet AGL
Clouds: few clouds at 2000 feet AGL
scattered clouds at 2500 feet AGL
broken clouds at 10000 feet AGL
Weather: no significant weather observed at this time

METAR text: VOMM 020730Z 19008KT 8000 SCT025 SCT100 38/22 Q1007 NOSIG
Conditions at: VOMM (MADRAS/CHENNAI , IN) observed 0730 UTC 02 June 2020
Temperature: 38.0°C (100°F)
Dewpoint: 22.0°C (72°F) [RH = 40%]
Pressure (altimeter): 29.73 inches Hg (1007.0 mb)
Winds: from the S (190 degrees) at 9 MPH (8 knots; 4.1 m/s)
Visibility: 5 miles ( 8 km)
Ceiling: at least 12,000 feet AGL
Clouds: scattered clouds at 2500 feet AGL
scattered clouds at 10000 feet AGL
Weather: no significant weather observed at this time

METAR text: VOMM 020700Z 20003KT 8000 SCT025 SCT100 38/23 Q1007 NOSIG
Conditions at: VOMM (MADRAS/CHENNAI , IN) observed 0700 UTC 02 June 2020
Temperature: 38.0°C (100°F)
Dewpoint: 23.0°C (73°F) [RH = 42%]
Pressure (altimeter): 29.73 inches Hg (1007.0 mb)
Winds: from the SSW (200 degrees) at 3 MPH (3 knots; 1.5 m/s)
Visibility: 5 miles ( 8 km)
Ceiling: at least 12,000 feet AGL
Clouds: scattered clouds at 2500 feet AGL
scattered clouds at 10000 feet AGL
Weather: no significant weather observed at this time

METAR text: VOMM 020630Z 21007KT 8000 SCT025 SCT100 37/23 Q1008 NOSIG
Conditions at: VOMM (MADRAS/CHENNAI , IN) observed 0630 UTC 02 June 2020
Temperature: 37.0°C (99°F)
Dewpoint: 23.0°C (73°F) [RH = 45%]
Pressure (altimeter): 29.76 inches Hg (1008.0 mb)
Winds: from the SSW (210 degrees) at 8 MPH (7 knots; 3.6 m/s)
Visibility: 5 miles ( 8 km)
Ceiling: at least 12,000 feet AGL
Clouds: scattered clouds at 2500 feet AGL
scattered clouds at 10000 feet AGL
Weather: no significant weather observed at this time

METAR text: VOMM 020600Z 16008KT 8000 SCT025 36/23 Q1008 NOSIG
Conditions at: VOMM (MADRAS/CHENNAI , IN) observed 0600 UTC 02 June 2020
Temperature: 36.0°C (97°F)
Dewpoint: 23.0°C (73°F) [RH = 47%]
Pressure (altimeter): 29.76 inches Hg (1008.0 mb)
Winds: from the SSE (160 degrees) at 9 MPH (8 knots; 4.1 m/s)
Visibility: 5 miles ( 8 km)
Ceiling: at least 12,000 feet AGL
Clouds: scattered clouds at 2500 feet AGL
Weather: no significant weather observed at this time

METAR text: VOMM 020530Z 21007KT 8000 SCT025 36/23 Q1009 NOSIG
Conditions at: VOMM (MADRAS/CHENNAI , IN) observed 0530 UTC 02 June 2020
Temperature: 36.0°C (97°F)
Dewpoint: 23.0°C (73°F) [RH = 47%]
Pressure (altimeter): 29.79 inches Hg (1009.0 mb)
Winds: from the SSW (210 degrees) at 8 MPH (7 knots; 3.6 m/s)
Visibility: 5 miles ( 8 km)
Ceiling: at least 12,000 feet AGL
Clouds: scattered clouds at 2500 feet AGL
Weather: no significant weather observed at this time

Forecast for: VOMM (MADRAS/CHENNAI , IN)
Text: TAF VOMM 031700Z 0318/0424 18010KT 6000 FEW020 SCT100
Forecast period: 1800 to 2100 UTC 03 June 2020
Forecast type: FROM: standard forecast or significant change
Winds: from the S (180 degrees) at 12 MPH (10 knots; 5.1 m/s)
Visibility: 4 miles (6 km)
Ceiling: at least 12,000 feet AGL
Clouds: few clouds at 2000 feet AGL
scattered clouds at 10000 feet AGL
Weather: no significant weather forecast for this period
Text: TEMPO 0318/0321 SCT018 FEW025TCU/CB BKN100
Forecast period: 1800 to 2100 UTC 03 June 2020
Forecast type: TEMPORARY: The following changes expected for less than half the time period
Visibility: missing
Ceiling: 10000 feet AGL
Clouds: scattered clouds at 1800 feet AGL
broken clouds at 10000 feet AGL
Weather: no significant weather forecast for this period
Text: BECMG 0321/0322 23005KT
Forecast period: 2100 UTC 03 June 2020 to 0600 UTC 04 June 2020
Forecast type: BECOMING: Conditions expected to become as follows by 2200 UTC 03 June 2020
Winds: from the SW (230 degrees) at 6 MPH (5 knots; 2.6 m/s)
Visibility: 4 miles (6 km)
Ceiling: at least 12,000 feet AGL
Clouds: few clouds at 2000 feet AGL
scattered clouds at 10000 feet AGL
Weather: no significant weather forecast for this period
Text: BECMG 0406/0408 16010KT
Forecast period: 0600 to 2100 UTC 04 June 2020
Forecast type: BECOMING: Conditions expected to become as follows by 0800 UTC 04 June 2020
Winds: from the SSE (160 degrees) at 12 MPH (10 knots; 5.1 m/s)
Visibility: 4 miles (6 km)
Ceiling: at least 12,000 feet AGL
Clouds: few clouds at 2000 feet AGL
scattered clouds at 10000 feet AGL
Weather: no significant weather forecast for this period
Text: TEMPO 0409/0415 SCT018 FEW025TCU/CB BKN100
Forecast period: 0900 to 1500 UTC 04 June 2020
Forecast type: TEMPORARY: The following changes expected for less than half the time period
Visibility: missing
Ceiling: 10000 feet AGL
Clouds: scattered clouds at 1800 feet AGL
broken clouds at 10000 feet AGL
Weather: no significant weather forecast for this period
Text: BECMG 0421/0422 23005KT
Forecast period: 2100 UTC 04 June 2020 to 0000 UTC 05 June 2020
Forecast type: BECOMING: Conditions expected to become as follows by 2200 UTC 04 June 2020
Winds: from the SW (230 degrees) at 6 MPH (5 knots; 2.6 m/s)
Visibility: 4 miles (6 km)
Ceiling: at least 12,000 feet AGL
Clouds: few clouds at 2000 feet AGL
scattered clouds at 10000 feet AGL
Weather: no significant weather forecast for this period